Atlanta, Georgia
Current Conditions -  °F | °C
As of 6:52 PM on Wednesday 22 Oct 2014 (Local Time) from KATL Reporting Station
Clear Clear  
Wind Chill: 63°   Ceiling: Unl
Heat Index: 63°   Visibility: 10mi
Dew Point: 42°   Wind: 9mph
Humidity: 46%   Direction: 330°NNW
Pressure: 30.07"   Gusts: NA
Location:  33.75°N, 84.39°W
Report Text: KATL 222252Z 33008KT 10SM CLR 17/06 A3007 RMK AO2 SLP183 T01720056
Loading
Personal Weather Stations






























Interactive Weather Map
Tropical Storm Tracking
New forecast layout! Learn more

10-Day Weather Forecast

Advertisements
Track Severe Weather on mobile